createdAt,value
2018-05-04T00:00:31.068Z,1010.00
2018-05-04T00:01:31.125Z,1010.01
2018-05-04T00:02:31.181Z,1010.00
2018-05-04T00:03:31.241Z,1010.00
2018-05-04T00:04:31.295Z,1009.99
2018-05-04T00:05:31.352Z,1010.00
2018-05-04T00:06:31.407Z,1010.02
2018-05-04T00:07:31.464Z,1010.04
2018-05-04T00:08:31.522Z,1010.06
2018-05-04T00:09:31.578Z,1010.09
2018-05-04T00:10:31.635Z,1010.09
2018-05-04T00:11:31.698Z,1010.15
2018-05-04T00:12:31.749Z,1010.14
2018-05-04T00:13:31.801Z,1010.16
2018-05-04T00:14:31.860Z,1010.14
2018-05-04T00:15:31.916Z,1010.10
2018-05-04T00:16:31.974Z,1010.13
2018-05-04T00:17:32.031Z,1010.10
2018-05-04T00:18:32.085Z,1010.12
2018-05-04T00:19:32.143Z,1010.13
2018-05-04T00:20:32.201Z,1010.11
2018-05-04T00:21:32.256Z,1010.11
2018-05-04T00:22:32.312Z,1010.12
2018-05-04T00:23:32.370Z,1010.13
2018-05-04T00:24:32.427Z,1010.16
2018-05-04T00:25:32.483Z,1010.17
2018-05-04T00:26:32.541Z,1010.19
2018-05-04T00:27:32.599Z,1010.20
2018-05-04T00:28:32.653Z,1010.23
2018-05-04T00:29:32.710Z,1010.22
2018-05-04T00:30:32.767Z,1010.19
2018-05-04T00:31:32.824Z,1010.24
2018-05-04T00:32:32.881Z,1010.21
2018-05-04T00:33:32.939Z,1010.22
2018-05-04T00:34:32.994Z,1010.26
2018-05-04T00:35:33.052Z,1010.27
2018-05-04T00:36:33.111Z,1010.30
2018-05-04T00:37:33.163Z,1010.29
2018-05-04T00:38:33.221Z,1010.31
2018-05-04T00:39:33.279Z,1010.31
2018-05-04T00:40:33.335Z,1010.36
2018-05-04T00:41:33.391Z,1010.38
2018-05-04T00:42:33.449Z,1010.43
2018-05-04T00:43:33.505Z,1010.38
2018-05-04T00:44:33.562Z,1010.39
2018-05-04T00:45:33.618Z,1010.41
2018-05-04T00:46:33.673Z,1010.39
2018-05-04T00:47:33.731Z,1010.38
2018-05-04T00:48:33.788Z,1010.39
2018-05-04T00:49:33.843Z,1010.41
2018-05-04T00:50:33.900Z,1010.39
2018-05-04T00:51:33.960Z,1010.39
2018-05-04T00:52:34.015Z,1010.39
2018-05-04T00:53:34.069Z,1010.40
2018-05-04T00:54:34.126Z,1010.38
2018-05-04T00:55:34.183Z,1010.38
2018-05-04T00:56:34.240Z,1010.37
2018-05-04T00:57:34.297Z,1010.38
2018-05-04T00:58:34.356Z,1010.32
2018-05-04T00:59:34.410Z,1010.42
2018-05-04T01:00:34.466Z,1010.39
2018-05-04T01:01:34.522Z,1010.43
2018-05-04T01:02:34.584Z,1010.41
2018-05-04T01:03:34.636Z,1010.40
2018-05-04T01:04:34.693Z,1010.39
2018-05-04T01:05:34.747Z,1010.45
2018-05-04T01:06:34.805Z,1010.42
2018-05-04T01:07:34.861Z,1010.42
2018-05-04T01:08:35.167Z,1010.39
2018-05-04T01:09:34.973Z,1010.42
2018-05-04T01:10:35.031Z,1010.39
2018-05-04T01:11:35.086Z,1010.37
2018-05-04T01:12:35.144Z,1010.37
2018-05-04T01:13:35.200Z,1010.36
2018-05-04T01:14:35.256Z,1010.40
2018-05-04T01:15:35.312Z,1010.39
2018-05-04T01:16:35.369Z,1010.43
2018-05-04T01:17:35.424Z,1010.44
2018-05-04T01:18:35.482Z,1010.47
2018-05-04T01:19:35.538Z,1010.50
2018-05-04T01:20:35.594Z,1010.49
2018-05-04T01:21:35.652Z,1010.52
2018-05-04T01:22:35.706Z,1010.51
2018-05-04T01:23:35.767Z,1010.52
2018-05-04T01:24:35.820Z,1010.54
2018-05-04T01:25:35.877Z,1010.60
2018-05-04T01:26:35.933Z,1010.63
2018-05-04T01:27:35.992Z,1010.57
2018-05-04T01:28:36.045Z,1010.58
2018-05-04T01:29:36.100Z,1010.59
2018-05-04T01:30:36.157Z,1010.57
2018-05-04T01:31:36.220Z,1010.56
2018-05-04T01:32:36.270Z,1010.55
2018-05-04T01:33:36.326Z,1010.49
2018-05-04T01:34:36.387Z,1010.55
2018-05-04T01:35:36.442Z,1010.51
2018-05-04T01:36:36.496Z,1010.53
2018-05-04T01:37:36.551Z,1010.50
2018-05-04T01:38:36.607Z,1010.48
2018-05-04T01:39:36.665Z,1010.50
2018-05-04T01:40:36.720Z,1010.47
2018-05-04T01:41:36.785Z,1010.48
2018-05-04T01:42:36.832Z,1010.42
2018-05-04T01:43:36.889Z,1010.42
2018-05-04T01:44:36.946Z,1010.42
2018-05-04T01:45:37.002Z,1010.40
2018-05-04T01:46:37.060Z,1010.42
2018-05-04T01:47:37.114Z,1010.49
2018-05-04T01:48:39.581Z,1010.49
2018-05-04T01:49:37.226Z,1010.48
2018-05-04T01:50:37.281Z,1010.49
2018-05-04T01:51:37.339Z,1010.49
2018-05-04T01:52:37.396Z,1010.51
2018-05-04T01:53:37.701Z,1010.51
2018-05-04T01:54:37.510Z,1010.51
2018-05-04T01:55:37.562Z,1010.52
2018-05-04T01:56:37.636Z,1010.52
2018-05-04T01:57:37.674Z,1010.52
2018-05-04T01:58:37.732Z,1010.56
2018-05-04T01:59:37.788Z,1010.58
2018-05-04T02:00:37.846Z,1010.58
2018-05-04T02:01:37.899Z,1010.56
2018-05-04T02:02:37.956Z,1010.54
2018-05-04T02:03:38.014Z,1010.54
2018-05-04T02:04:38.068Z,1010.51
2018-05-04T02:05:38.124Z,1010.51
2018-05-04T02:06:38.179Z,1010.47
2018-05-04T02:07:38.236Z,1010.47
2018-05-04T02:08:38.293Z,1010.46
2018-05-04T02:09:38.349Z,1010.47
2018-05-04T02:10:38.405Z,1010.48
2018-05-04T02:11:38.464Z,1010.48
2018-05-04T02:12:38.517Z,1010.51
2018-05-04T02:13:38.576Z,1010.49
2018-05-04T02:14:38.630Z,1010.51
2018-05-04T02:15:38.685Z,1010.51
2018-05-04T02:16:38.741Z,1010.47
2018-05-04T02:17:38.796Z,1010.46
2018-05-04T02:18:38.853Z,1010.47
2018-05-04T02:19:38.908Z,1010.50
2018-05-04T02:20:38.964Z,1010.51
2018-05-04T02:21:39.021Z,1010.47
2018-05-04T02:22:39.077Z,1010.44
2018-05-04T02:23:39.135Z,1010.47
2018-05-04T02:24:39.189Z,1010.46
2018-05-04T02:25:39.245Z,1010.47
2018-05-04T02:26:39.300Z,1010.45
2018-05-04T02:27:39.357Z,1010.47
2018-05-04T02:28:39.413Z,1010.47
2018-05-04T02:29:39.469Z,1010.46
2018-05-04T02:30:39.526Z,1010.50
2018-05-04T02:31:39.581Z,1010.49
2018-05-04T02:32:39.636Z,1010.47
2018-05-04T02:33:39.698Z,1010.47
2018-05-04T02:34:39.748Z,1010.50
2018-05-04T02:35:39.805Z,1010.54
2018-05-04T02:36:39.861Z,1010.52
2018-05-04T02:37:39.916Z,1010.55
2018-05-04T02:38:39.972Z,1010.56
2018-05-04T02:39:40.028Z,1010.60
2018-05-04T02:40:40.085Z,1010.58
2018-05-04T02:41:40.139Z,1010.61
2018-05-04T02:42:40.200Z,1010.64
2018-05-04T02:43:40.251Z,1010.60
2018-05-04T02:44:40.308Z,1010.58
2018-05-04T02:45:40.364Z,1010.59
2018-05-04T02:46:40.428Z,1010.65
2018-05-04T02:47:40.475Z,1010.66
2018-05-04T02:48:40.532Z,1010.66
2018-05-04T02:49:40.587Z,1010.67
2018-05-04T02:50:40.644Z,1010.67
2018-05-04T02:51:40.698Z,1010.67
2018-05-04T02:52:40.754Z,1010.69
2018-05-04T02:53:40.810Z,1010.64
2018-05-04T02:54:40.867Z,1010.65
2018-05-04T02:55:40.924Z,1010.65
2018-05-04T02:56:40.979Z,1010.68
2018-05-04T02:57:41.034Z,1010.69
2018-05-04T02:58:41.090Z,1010.68
2018-05-04T02:59:41.144Z,1010.68
2018-05-04T03:00:41.240Z,1010.67
2018-05-04T03:01:41.256Z,1010.72
2018-05-04T03:02:41.311Z,1010.68
2018-05-04T03:03:41.369Z,1010.69
2018-05-04T03:04:41.427Z,1010.68
2018-05-04T03:05:41.480Z,1010.66
2018-05-04T03:06:41.537Z,1010.63
2018-05-04T03:07:41.592Z,1010.65
2018-05-04T03:08:41.649Z,1010.58
2018-05-04T03:09:41.703Z,1010.56
2018-05-04T03:10:41.758Z,1010.53
2018-05-04T03:11:41.814Z,1010.51
2018-05-04T03:12:41.871Z,1010.50
2018-05-04T03:13:41.926Z,1010.53
2018-05-04T03:14:41.981Z,1010.50
2018-05-04T03:15:42.036Z,1010.53
2018-05-04T03:16:42.092Z,1010.55
2018-05-04T03:17:42.149Z,1010.57
2018-05-04T03:18:42.205Z,1010.55
2018-05-04T03:19:42.259Z,1010.56
2018-05-04T03:20:42.315Z,1010.53
2018-05-04T03:21:42.372Z,1010.51
2018-05-04T03:22:42.426Z,1010.51
2018-05-04T03:23:42.732Z,1010.47
2018-05-04T03:24:42.539Z,1010.51
2018-05-04T03:25:42.593Z,1010.47
2018-05-04T03:26:42.652Z,1010.49
2018-05-04T03:27:42.704Z,1010.50
2018-05-04T03:28:42.761Z,1010.49
2018-05-04T03:29:42.815Z,1010.47
2018-05-04T03:30:42.871Z,1010.45
2018-05-04T03:31:42.929Z,1010.45
2018-05-04T03:32:43.292Z,1010.43
2018-05-04T03:33:43.038Z,1010.47
2018-05-04T03:34:43.093Z,1010.44
2018-05-04T03:35:43.148Z,1010.48
2018-05-04T03:36:43.205Z,1010.43
2018-05-04T03:37:43.259Z,1010.44
2018-05-04T03:38:43.314Z,1010.43
2018-05-04T03:39:43.369Z,1010.42
2018-05-04T03:40:43.431Z,1010.41
2018-05-04T03:41:43.486Z,1010.41
2018-05-04T03:42:43.539Z,1010.40
2018-05-04T03:43:43.592Z,1010.45
2018-05-04T03:44:43.647Z,1010.46
2018-05-04T03:45:43.703Z,1010.47
2018-05-04T03:46:43.758Z,1010.51
2018-05-04T03:47:43.814Z,1010.51
2018-05-04T03:48:43.870Z,1010.50
2018-05-04T03:49:43.924Z,1010.52
2018-05-04T03:50:43.981Z,1010.55
2018-05-04T03:51:44.039Z,1010.54
2018-05-04T03:52:44.091Z,1010.56
2018-05-04T03:53:44.146Z,1010.54
2018-05-04T03:54:44.205Z,1010.57
2018-05-04T03:55:44.278Z,1010.54
2018-05-04T03:56:44.316Z,1010.56
2018-05-04T03:57:44.384Z,1010.56
2018-05-04T03:58:44.423Z,1010.58
2018-05-04T03:59:44.492Z,1010.56
2018-05-04T04:00:44.579Z,1010.56
2018-05-04T04:01:44.629Z,1010.49
2018-05-04T04:02:44.644Z,1010.54
2018-05-04T04:03:44.700Z,1010.58
2018-05-04T04:04:44.755Z,1010.58
2018-05-04T04:05:44.809Z,1010.56
2018-05-04T04:06:44.867Z,1010.57
2018-05-04T04:07:44.921Z,1010.56
2018-05-04T04:08:44.976Z,1010.60
2018-05-04T04:09:45.031Z,1010.57
2018-05-04T04:10:45.088Z,1010.65
2018-05-04T04:11:45.142Z,1010.69
2018-05-04T04:12:45.198Z,1010.68
2018-05-04T04:13:45.251Z,1010.71
2018-05-04T04:14:45.307Z,1010.69
2018-05-04T04:15:45.363Z,1010.72
2018-05-04T04:16:45.418Z,1010.71
2018-05-04T04:17:45.476Z,1010.66
2018-05-04T04:18:45.532Z,1010.70
2018-05-04T04:19:45.584Z,1010.67
2018-05-04T04:20:45.640Z,1010.70
2018-05-04T04:21:45.693Z,1010.68
2018-05-04T04:22:45.750Z,1010.73
2018-05-04T04:23:45.815Z,1010.71
2018-05-04T04:24:45.860Z,1010.77
2018-05-04T04:25:45.915Z,1010.75
2018-05-04T04:26:45.971Z,1010.77
2018-05-04T04:27:46.026Z,1010.77
2018-05-04T04:28:46.081Z,1010.80
2018-05-04T04:29:46.137Z,1010.84
2018-05-04T04:30:46.191Z,1010.81
2018-05-04T04:31:46.246Z,1010.83
2018-05-04T04:32:46.301Z,1010.85
2018-05-04T04:33:46.357Z,1010.84
2018-05-04T04:34:46.411Z,1010.85
2018-05-04T04:35:46.471Z,1010.85
2018-05-04T04:36:46.523Z,1010.89
2018-05-04T04:37:46.581Z,1010.93
2018-05-04T04:38:46.710Z,1010.91
2018-05-04T04:39:46.689Z,1010.94
2018-05-04T04:40:46.745Z,1010.99
2018-05-04T04:41:46.802Z,1011.02
2018-05-04T04:42:46.855Z,1011.03
2018-05-04T04:43:46.911Z,1011.04
2018-05-04T04:44:46.966Z,1011.03
2018-05-04T04:45:47.021Z,1011.06
2018-05-04T04:46:47.077Z,1011.05
2018-05-04T04:47:47.453Z,1011.05
2018-05-04T04:48:47.289Z,1011.04
2018-05-04T04:49:47.242Z,1011.08
2018-05-04T04:50:47.297Z,1011.04
2018-05-04T04:51:47.353Z,1011.06
2018-05-04T04:52:47.409Z,1011.07
2018-05-04T04:53:47.463Z,1011.07
2018-05-04T04:54:47.519Z,1011.09
2018-05-04T04:55:47.574Z,1011.09
2018-05-04T04:56:47.630Z,1011.08
2018-05-04T04:57:47.685Z,1011.16
2018-05-04T04:58:47.740Z,1011.13
2018-05-04T04:59:47.795Z,1011.14
2018-05-04T05:00:47.852Z,1011.15
2018-05-04T05:01:47.963Z,1011.10
2018-05-04T05:02:47.960Z,1011.13
2018-05-04T05:03:48.018Z,1011.14
2018-05-04T05:04:48.073Z,1011.13
2018-05-04T05:05:48.127Z,1011.18
2018-05-04T05:06:48.215Z,1011.15
2018-05-04T05:07:48.256Z,1011.15
2018-05-04T05:08:48.294Z,1011.21
2018-05-04T05:09:48.349Z,1011.22
2018-05-04T05:10:48.403Z,1011.23
2018-05-04T05:11:48.461Z,1011.23
2018-05-04T05:12:48.515Z,1011.27
2018-05-04T05:13:48.571Z,1011.32
2018-05-04T05:14:48.625Z,1011.37
2018-05-04T05:15:48.683Z,1011.38
2018-05-04T05:16:48.738Z,1011.39
2018-05-04T05:17:48.793Z,1011.41
2018-05-04T05:18:48.850Z,1011.45
2018-05-04T05:19:48.935Z,1011.44
2018-05-04T05:20:48.961Z,1011.42
2018-05-04T05:21:49.060Z,1011.43
2018-05-04T05:22:49.071Z,1011.45
2018-05-04T05:23:49.202Z,1011.47
2018-05-04T05:24:49.182Z,1011.44
2018-05-04T05:25:49.237Z,1011.48
2018-05-04T05:26:49.293Z,1011.50
2018-05-04T05:27:49.350Z,1011.50
2018-05-04T05:28:49.407Z,1011.47
2018-05-04T05:29:49.459Z,1011.47
2018-05-04T05:30:49.516Z,1011.45
2018-05-04T05:31:49.573Z,1011.39
2018-05-04T05:32:49.628Z,1011.41
2018-05-04T05:33:49.682Z,1011.43
2018-05-04T05:34:50.233Z,1011.41
2018-05-04T05:35:49.795Z,1011.45
2018-05-04T05:36:49.852Z,1011.49
2018-05-04T05:37:49.906Z,1011.52
2018-05-04T05:38:49.984Z,1011.53
2018-05-04T05:39:50.020Z,1011.59
2018-05-04T05:40:50.076Z,1011.58
2018-05-04T05:41:50.131Z,1011.58
2018-05-04T05:42:50.186Z,1011.58
2018-05-04T05:43:50.244Z,1011.57
2018-05-04T05:44:50.301Z,1011.57
2018-05-04T05:45:50.355Z,1011.56
2018-05-04T05:46:50.414Z,1011.55
2018-05-04T05:47:50.468Z,1011.55
2018-05-04T05:48:50.524Z,1011.55
2018-05-04T05:49:50.582Z,1011.51
2018-05-04T05:50:50.635Z,1011.54
2018-05-04T05:51:51.018Z,1011.55
2018-05-04T05:52:50.750Z,1011.54
2018-05-04T05:53:50.803Z,1011.55
2018-05-04T05:54:50.889Z,1011.53
2018-05-04T05:55:50.917Z,1011.52
2018-05-04T05:56:50.974Z,1011.52
2018-05-04T05:57:51.033Z,1011.53
2018-05-04T05:58:51.095Z,1011.52
2018-05-04T05:59:51.144Z,1011.50
2018-05-04T06:00:51.199Z,1011.51
2018-05-04T06:01:51.259Z,1011.51
2018-05-04T06:02:51.313Z,1011.52
2018-05-04T06:03:51.369Z,1011.50
2018-05-04T06:04:51.429Z,1011.46
2018-05-04T06:05:51.481Z,1011.50
2018-05-04T06:06:51.540Z,1011.48
2018-05-04T06:07:51.596Z,1011.46
2018-05-04T06:08:51.653Z,1011.44
2018-05-04T06:09:51.713Z,1011.42
2018-05-04T06:10:51.766Z,1011.44
2018-05-04T06:11:51.822Z,1011.39
2018-05-04T06:12:51.880Z,1011.40
2018-05-04T06:13:51.937Z,1011.39
2018-05-04T06:14:51.995Z,1011.38
2018-05-04T06:15:52.051Z,1011.37
2018-05-04T06:16:52.166Z,1011.38
2018-05-04T06:17:52.165Z,1011.38
2018-05-04T06:18:52.222Z,1011.39
2018-05-04T06:19:52.280Z,1011.38
2018-05-04T06:20:52.341Z,1011.40
2018-05-04T06:21:52.393Z,1011.38
2018-05-04T06:22:52.450Z,1011.36
2018-05-04T06:23:52.511Z,1011.39
2018-05-04T06:24:52.566Z,1011.39
2018-05-04T06:25:52.622Z,1011.37
2018-05-04T06:26:52.681Z,1011.39
2018-05-04T06:27:52.738Z,1011.45
2018-05-04T06:28:52.799Z,1011.44
2018-05-04T06:29:52.851Z,1011.44
2018-05-04T06:30:52.910Z,1011.42
2018-05-04T06:31:52.971Z,1011.40
2018-05-04T06:32:53.026Z,1011.42
2018-05-04T06:33:53.169Z,1011.49
2018-05-04T06:34:53.140Z,1011.53
2018-05-04T06:35:53.203Z,1011.53
2018-05-04T06:36:53.256Z,1011.55
2018-05-04T06:37:53.313Z,1011.56
2018-05-04T06:38:53.371Z,1011.52
2018-05-04T06:39:53.430Z,1011.49
2018-05-04T06:40:53.487Z,1011.50
2018-05-04T06:41:53.542Z,1011.50
2018-05-04T06:42:53.602Z,1011.51
2018-05-04T06:43:53.810Z,1011.49
2018-05-04T06:44:53.717Z,1011.47
2018-05-04T06:45:53.824Z,1011.46
2018-05-04T06:46:53.831Z,1011.45
2018-05-04T06:47:53.891Z,1011.48
2018-05-04T06:48:53.949Z,1011.48
2018-05-04T06:49:54.006Z,1011.46
2018-05-04T06:50:54.064Z,1011.47
2018-05-04T06:51:54.121Z,1011.49
2018-05-04T06:52:54.179Z,1011.51
2018-05-04T06:53:54.239Z,1011.49
2018-05-04T06:54:54.297Z,1011.46
2018-05-04T06:55:54.353Z,1011.40
2018-05-04T06:56:54.431Z,1011.44
2018-05-04T06:57:54.471Z,1011.40
2018-05-04T06:58:54.529Z,1011.39
2018-05-04T06:59:54.586Z,1011.38
2018-05-04T07:00:54.645Z,1011.40
2018-05-04T07:01:54.703Z,1011.41
2018-05-04T07:02:55.085Z,1011.40
2018-05-04T07:03:54.823Z,1011.41
2018-05-04T07:04:54.898Z,1011.42
2018-05-04T07:05:54.937Z,1011.42
2018-05-04T07:06:55.002Z,1011.38
2018-05-04T07:07:55.055Z,1011.42
2018-05-04T07:08:55.190Z,1011.43
2018-05-04T07:09:55.170Z,1011.40
2018-05-04T07:10:55.228Z,1011.40
2018-05-04T07:11:55.289Z,1011.42
2018-05-04T07:12:55.347Z,1011.41
2018-05-04T07:13:55.406Z,1011.42
2018-05-04T07:14:55.466Z,1011.45
2018-05-04T07:15:55.577Z,1011.47
2018-05-04T07:16:55.582Z,1011.42
2018-05-04T07:17:55.640Z,1011.44
2018-05-04T07:18:55.703Z,1011.45
2018-05-04T07:19:55.757Z,1011.43
2018-05-04T07:20:55.822Z,1011.41
2018-05-04T07:21:55.879Z,1011.45
2018-05-04T07:22:55.934Z,1011.44
2018-05-04T07:23:55.994Z,1011.44
2018-05-04T07:24:56.053Z,1011.45
2018-05-04T07:25:56.111Z,1011.44
2018-05-04T07:26:56.170Z,1011.44
2018-05-04T07:27:56.230Z,1011.43
2018-05-04T07:28:56.289Z,1011.42
2018-05-04T07:29:56.348Z,1011.42
2018-05-04T07:30:56.407Z,1011.38
2018-05-04T07:31:56.466Z,1011.37
2018-05-04T07:32:56.527Z,1011.36
2018-05-04T07:33:57.187Z,1011.37
2018-05-04T07:34:57.196Z,1011.36
2018-05-04T07:35:58.225Z,1011.38
2018-05-04T07:36:56.763Z,1011.40
2018-05-04T07:37:56.822Z,1011.35
2018-05-04T07:38:56.882Z,1011.34
2018-05-04T07:39:56.942Z,1011.35
2018-05-04T07:40:57.000Z,1011.34
2018-05-04T07:41:57.060Z,1011.34
2018-05-04T07:42:57.122Z,1011.33
2018-05-04T07:43:57.179Z,1011.33
2018-05-04T07:44:57.239Z,1011.30
2018-05-04T07:45:57.298Z,1011.32
2018-05-04T07:46:57.364Z,1011.29
2018-05-04T07:47:57.417Z,1011.29
2018-05-04T07:48:57.483Z,1011.30
2018-05-04T07:49:57.535Z,1011.31
2018-05-04T07:50:57.596Z,1011.34
2018-05-04T07:51:57.656Z,1011.33
2018-05-04T07:52:57.725Z,1011.33
2018-05-04T07:53:57.775Z,1011.33
2018-05-04T07:54:57.835Z,1011.35
2018-05-04T07:55:57.896Z,1011.35
2018-05-04T07:56:57.955Z,1011.32
2018-05-04T07:57:58.015Z,1011.29
2018-05-04T07:58:58.076Z,1011.34
2018-05-04T07:59:58.136Z,1011.32
2018-05-04T08:00:58.195Z,1011.34
2018-05-04T08:01:58.273Z,1011.29
2018-05-04T08:02:58.400Z,1011.30
2018-05-04T08:03:58.381Z,1011.24
2018-05-04T08:04:58.443Z,1011.23
2018-05-04T08:05:58.496Z,1011.23
2018-05-04T08:06:58.557Z,1011.21
2018-05-04T08:07:58.617Z,1011.19
2018-05-04T08:08:58.677Z,1011.22
2018-05-04T08:09:58.736Z,1011.18
2018-05-04T08:10:58.798Z,1011.20
2018-05-04T08:11:58.859Z,1011.19
2018-05-04T08:12:58.921Z,1011.17
2018-05-04T08:13:58.980Z,1011.15
2018-05-04T08:14:59.041Z,1011.15
2018-05-04T08:15:59.103Z,1011.15
2018-05-04T08:16:59.195Z,1011.07
2018-05-04T08:17:59.223Z,1011.07
2018-05-04T08:18:59.283Z,1011.10
2018-05-04T08:19:59.413Z,1011.11
2018-05-04T08:20:59.405Z,1011.15
2018-05-04T08:21:59.466Z,1011.10
2018-05-04T08:22:59.526Z,1011.10
2018-05-04T08:23:59.587Z,1011.06
2018-05-04T08:24:59.648Z,1011.05
2018-05-04T08:25:59.709Z,1011.07
2018-05-04T08:26:59.773Z,1011.06
2018-05-04T08:27:59.830Z,1011.09
2018-05-04T08:28:59.893Z,1011.12
2018-05-04T08:29:59.951Z,1011.19
2018-05-04T08:31:00.014Z,1011.13
2018-05-04T08:32:00.075Z,1011.16
2018-05-04T08:33:00.137Z,1011.14
2018-05-04T08:34:00.604Z,1011.14
2018-05-04T08:35:00.296Z,1011.16
2018-05-04T08:36:00.319Z,1011.12
2018-05-04T08:37:00.381Z,1011.17
2018-05-04T08:38:00.441Z,1011.22
2018-05-04T08:39:00.503Z,1011.20
2018-05-04T08:40:00.565Z,1011.28
2018-05-04T08:41:00.627Z,1011.20
2018-05-04T08:42:00.688Z,1011.21
2018-05-04T08:43:00.778Z,1011.20
2018-05-04T08:44:00.809Z,1011.22
2018-05-04T08:45:00.872Z,1011.21
2018-05-04T08:46:00.932Z,1011.17
2018-05-04T08:47:00.993Z,1011.18
2018-05-04T08:48:01.055Z,1011.16
2018-05-04T08:49:01.117Z,1011.15
2018-05-04T08:50:01.177Z,1011.13
2018-05-04T08:51:01.292Z,1011.15
2018-05-04T08:52:01.302Z,1011.16
2018-05-04T08:53:01.364Z,1011.17
2018-05-04T08:54:01.424Z,1011.19
2018-05-04T08:55:01.487Z,1011.11
2018-05-04T08:56:01.549Z,1011.12
2018-05-04T08:57:01.950Z,1011.12
2018-05-04T08:58:01.673Z,1011.11
2018-05-04T08:59:01.733Z,1011.10
2018-05-04T09:00:01.796Z,1011.11
2018-05-04T09:01:01.859Z,1011.09
2018-05-04T09:02:01.988Z,1011.11
2018-05-04T09:03:01.989Z,1011.11
2018-05-04T09:04:02.093Z,1011.11
2018-05-04T09:05:02.106Z,1011.10
2018-05-04T09:06:02.167Z,1011.08
2018-05-04T09:07:02.248Z,1011.05
2018-05-04T09:08:02.290Z,1011.04
2018-05-04T09:09:02.354Z,1011.02
2018-05-04T09:10:02.415Z,1011.06
2018-05-04T09:11:02.478Z,1011.05
2018-05-04T09:12:02.540Z,1010.98
2018-05-04T09:13:02.602Z,1011.05
2018-05-04T09:14:02.719Z,1011.07
2018-05-04T09:15:02.727Z,1011.06
2018-05-04T09:16:02.795Z,1011.03
2018-05-04T09:17:02.855Z,1011.04
2018-05-04T09:18:02.914Z,1011.05
2018-05-04T09:19:02.975Z,1011.02
2018-05-04T09:20:03.038Z,1011.05
2018-05-04T09:21:03.101Z,1011.01
2018-05-04T09:22:03.174Z,1011.09
2018-05-04T09:23:03.809Z,1011.10
2018-05-04T09:24:03.799Z,1011.11
2018-05-04T09:25:03.350Z,1011.08
2018-05-04T09:26:03.415Z,1011.09
2018-05-04T09:27:03.474Z,1011.04
2018-05-04T09:28:03.916Z,1011.02
2018-05-04T09:29:03.600Z,1011.00
2018-05-04T09:30:03.667Z,1010.99
2018-05-04T09:31:03.752Z,1010.97
2018-05-04T09:32:04.183Z,1011.00
2018-05-04T09:33:03.850Z,1011.03
2018-05-04T09:34:03.916Z,1011.00
2018-05-04T09:35:03.976Z,1010.99
2018-05-04T09:36:04.038Z,1010.98
2018-05-04T09:37:04.100Z,1011.00
2018-05-04T09:38:04.163Z,1010.98
2018-05-04T09:39:04.225Z,1010.99
2018-05-04T09:40:04.288Z,1011.00
2018-05-04T09:41:04.398Z,1010.93
2018-05-04T09:42:04.413Z,1010.96
2018-05-04T09:43:04.480Z,1010.98
2018-05-04T09:44:04.539Z,1010.94
2018-05-04T09:45:04.604Z,1010.88
2018-05-04T09:46:04.665Z,1010.83
2018-05-04T09:47:04.740Z,1010.87
2018-05-04T09:48:04.795Z,1010.85
2018-05-04T09:49:04.868Z,1010.86
2018-05-04T09:50:04.969Z,1010.89
2018-05-04T09:51:04.979Z,1010.86
2018-05-04T09:52:05.043Z,1010.85
2018-05-04T09:53:05.756Z,1010.85
2018-05-04T09:54:05.168Z,1010.82
2018-05-04T09:55:05.231Z,1010.79
2018-05-04T09:56:05.380Z,1010.80
2018-05-04T09:57:05.359Z,1010.80
2018-05-04T09:58:05.420Z,1010.75
2018-05-04T09:59:05.705Z,1010.85
2018-05-04T10:00:05.546Z,1010.80
2018-05-04T10:01:05.612Z,1010.85
2018-05-04T10:02:05.673Z,1010.84
2018-05-04T10:03:05.736Z,1010.82
2018-05-04T10:04:05.802Z,1010.82
2018-05-04T10:05:05.865Z,1010.80
2018-05-04T10:06:05.925Z,1010.79
2018-05-04T10:07:05.990Z,1010.73
2018-05-04T10:08:06.053Z,1010.78
2018-05-04T10:09:06.137Z,1010.78
2018-05-04T10:10:06.178Z,1010.70
2018-05-04T10:11:06.243Z,1010.65
2018-05-04T10:12:06.309Z,1010.64
2018-05-04T10:13:06.373Z,1010.65
2018-05-04T10:14:06.433Z,1010.66
2018-05-04T10:15:06.497Z,1010.71
2018-05-04T10:16:06.622Z,1010.80
2018-05-04T10:17:06.625Z,1011.06
2018-05-04T10:18:06.690Z,1011.28
2018-05-04T10:19:06.755Z,1011.42
2018-05-04T10:20:06.820Z,1011.41
2018-05-04T10:21:06.891Z,1011.42
2018-05-04T10:22:06.952Z,1011.44
2018-05-04T10:23:07.034Z,1011.44
2018-05-04T10:24:07.097Z,1011.52
2018-05-04T10:25:07.163Z,1011.46
2018-05-04T10:26:07.215Z,1011.48
2018-05-04T10:27:07.288Z,1011.58
2018-05-04T10:28:07.357Z,1011.52
2018-05-04T10:29:07.418Z,1011.53
2018-05-04T10:30:07.485Z,1011.47
2018-05-04T10:31:07.602Z,1011.48
2018-05-04T10:32:07.637Z,1011.41
2018-05-04T10:33:07.692Z,1011.47
2018-05-04T10:34:08.320Z,1011.39
2018-05-04T10:35:07.827Z,1011.43
2018-05-04T10:36:07.897Z,1011.39
2018-05-04T10:37:07.969Z,1011.34
2018-05-04T10:38:08.050Z,1011.37
2018-05-04T10:39:08.108Z,1011.35
2018-05-04T10:40:08.177Z,1011.38
2018-05-04T10:41:08.248Z,1011.40
2018-05-04T10:42:08.318Z,1011.38
2018-05-04T10:43:08.389Z,1011.44
2018-05-04T10:44:08.459Z,1011.44
2018-05-04T10:45:08.553Z,1011.44
2018-05-04T10:46:08.601Z,1011.36
2018-05-04T10:47:08.679Z,1011.43
2018-05-04T10:48:08.743Z,1011.38
2018-05-04T10:49:08.816Z,1011.49
2018-05-04T10:50:08.887Z,1011.40
2018-05-04T10:51:08.957Z,1011.40
2018-05-04T10:52:09.029Z,1011.32
2018-05-04T10:53:09.100Z,1011.42
2018-05-04T10:54:09.171Z,1011.37
2018-05-04T10:55:09.243Z,1011.42
2018-05-04T10:56:09.316Z,1011.44
2018-05-04T10:57:09.448Z,1011.42
2018-05-04T10:58:09.458Z,1011.41
2018-05-04T10:59:09.530Z,1011.51
2018-05-04T11:00:09.602Z,1011.54
2018-05-04T11:01:09.674Z,1011.57
2018-05-04T11:02:09.745Z,1011.59
2018-05-04T11:03:09.817Z,1011.50
2018-05-04T11:04:09.892Z,1011.54
2018-05-04T11:05:09.991Z,1011.49
2018-05-04T11:06:10.032Z,1011.49
2018-05-04T11:07:10.104Z,1011.48
2018-05-04T11:08:10.177Z,1011.47
2018-05-04T11:09:10.252Z,1011.46
2018-05-04T11:10:10.319Z,1011.33
2018-05-04T11:11:10.395Z,1011.48
2018-05-04T11:12:10.465Z,1011.46
2018-05-04T11:13:10.538Z,1011.38
2018-05-04T11:14:10.609Z,1011.42
2018-05-04T11:15:10.684Z,1011.36
2018-05-04T11:16:10.752Z,1011.39
2018-05-04T11:17:10.825Z,1011.32
2018-05-04T11:18:10.896Z,1011.42
2018-05-04T11:19:10.969Z,1011.44
2018-05-04T11:20:11.043Z,1011.47
2018-05-04T11:21:11.115Z,1011.40
2018-05-04T11:22:11.186Z,1011.49
2018-05-04T11:23:11.259Z,1011.48
2018-05-04T11:24:11.352Z,1011.50
2018-05-04T11:25:11.405Z,1011.55
2018-05-04T11:26:11.475Z,1011.66
2018-05-04T11:27:11.546Z,1011.71
2018-05-04T11:28:11.620Z,1011.85
2018-05-04T11:29:12.003Z,1011.94
2018-05-04T11:30:11.764Z,1012.01
2018-05-04T11:31:11.836Z,1012.07
2018-05-04T11:32:11.908Z,1012.05
2018-05-04T11:33:11.980Z,1012.16
2018-05-04T11:34:12.051Z,1012.27
2018-05-04T11:35:12.130Z,1012.27
2018-05-04T11:36:12.197Z,1012.31
2018-05-04T11:37:12.269Z,1012.31
2018-05-04T11:38:12.342Z,1012.28
2018-05-04T11:39:12.414Z,1012.24
2018-05-04T11:40:12.520Z,1012.20
2018-05-04T11:41:12.559Z,1012.26
2018-05-04T11:42:12.634Z,1012.21
2018-05-04T11:43:12.703Z,1012.11
2018-05-04T11:44:12.776Z,1012.15
2018-05-04T11:45:12.853Z,1012.14
2018-05-04T11:46:12.919Z,1012.10
2018-05-04T11:47:12.993Z,1012.09
2018-05-04T11:48:13.069Z,1012.09
2018-05-04T11:49:13.143Z,1012.06
2018-05-04T11:50:13.210Z,1012.11
2018-05-04T11:51:13.284Z,1012.13
2018-05-04T11:52:13.355Z,1012.08
2018-05-04T11:53:13.427Z,1012.13
2018-05-04T11:54:13.504Z,1012.16
2018-05-04T11:55:13.659Z,1012.13
2018-05-04T11:56:13.645Z,1012.13
2018-05-04T11:57:13.717Z,1012.13
2018-05-04T11:58:13.790Z,1012.14
2018-05-04T11:59:13.862Z,1012.20
2018-05-04T12:00:13.934Z,1012.20
2018-05-04T12:01:14.315Z,1012.24
2018-05-04T12:02:14.083Z,1012.30
2018-05-04T12:03:14.149Z,1012.30
2018-05-04T12:04:14.222Z,1012.29
2018-05-04T12:05:14.293Z,1012.29
2018-05-04T12:06:14.754Z,1012.27